Nearby METAR Reports

 

EGNM - Leeds And Bradford, United Kingdom
Distance from station: N 11mi, 18km
Updated: 24/02/2020 04:20
Light snow, Rain, Overcast
Light snow, Rain, Overcast
 Wind from SE
Wind: SE 13 mph , 20 km/h
Temperature: 1°C
Wind Chill: -4°C
Dew Point: 0°C
Humidity: 93%
Barometer: 1013 hPa
Summary: Light snow, Rain
Clouds: Overcast
Visibility: 4 miles , 6 km
Cloud details: Overcast 61 m
2020/02/24 04:20 EGNM 240420Z 13011KT 6000 -SNRA OVC002 01/00 Q1013
EGXU - Linton-On-Ouse, United Kingdom
Distance from station: NNE 28mi, 45km
Updated: 24/02/2020 03:50
Rain, Partly cloudy
Rain, Partly cloudy
 Wind from S
Wind: S 14 mph , 22 km/h
Temperature: 4°C
Wind Chill: -1°C
Dew Point: 1°C
Humidity: 81%
Barometer: 1015 hPa
Summary: Rain
Clouds: Partly cloudy
Visibility: 5 miles , 8 km
Cloud details: Mostly cloudy 488 m
Partly cloudy 1524 m
2020/02/24 03:50 EGXU 240350Z AUTO 17012KT 8000 RA BKN016/// SCT050/// 04/01 Q1015
 
EGCN - Doncaster Sheffield, United Kingdom
Distance from station: ESE 30mi, 45km
Updated: 24/02/2020 04:20
Mostly cloudy
Mostly cloudy
 Wind from SE
Wind: SE 8 mph , 13 km/h
Temperature: 3°C
Wind Chill: -1°C
Dew Point: 2°C
Humidity: 93%
Barometer: 1015 hPa
Clouds: Mostly cloudy
Visibility: 6 miles , 10 km
Cloud details: Few Clouds 366 m
Partly cloudy 762 m
Mostly cloudy 975 m
2020/02/24 04:20 EGCN 240420Z 14007KT 9999 FEW012 SCT025 BKN032 03/02 Q1015 RERA
EGXZ - Topcliffe RAF, United Kingdom
Distance from station: NNE 36mi, 57km
Updated: 24/02/2020 03:50
Rain, Partly cloudy
Rain, Partly cloudy
 Wind from SSE
Wind: SSE 9 mph , 15 km/h
Temperature: 4°C
Wind Chill: 1°C
Dew Point: 2°C
Humidity: 87%
Barometer: 1015 hPa
Summary: Rain
Clouds: Partly cloudy
Visibility: 6 miles , 10 km
Cloud details: Mostly cloudy 457 m
Partly cloudy 1524 m
2020/02/24 03:50 EGXZ 240350Z AUTO 15008KT 9999 RA BKN015/// SCT050/// 04/02 Q1015
 
EGCC - Manchester Intl, United Kingdom
Distance from station: SW 36mi, 58km
Updated: 24/02/2020 04:20
Light rain, Thunderstorm
Light rain, Thunderstorm
 Wind from SE
Wind: SE 7 mph , 11 km/h
Temperature: 3°C
Wind Chill: 0°C
Dew Point: 2°C
Humidity: 93%
Barometer: 1011 hPa
Summary: Light rain
Clouds: Thunderstorm
Visibility: 6 miles , 10 km
Cloud details: Mostly cloudy 518 m
Overcast 914 m
2020/02/24 04:20 EGCC 240420Z AUTO 13006KT 070V190 9999 -RA BKN017/// OVC030/// //////TCU 03/02 Q1011 TEMPO RA BKN014
EGXE - Leeming RAF, United Kingdom
Distance from station: N 40mi, 65km
Updated: 24/02/2020 03:50
Light rain, Mostly cloudy
Light rain, Mostly cloudy
 Wind from SSE
Wind: SSE 12 mph , 19 km/h
Temperature: 4°C
Wind Chill: 0°C
Dew Point: 1°C
Humidity: 81%
Barometer: 1014 hPa
Summary: Light rain
Clouds: Mostly cloudy
Visibility: 6 miles , 10 km
Cloud details: Partly cloudy 732 m
Partly cloudy 1006 m
Mostly cloudy 1524 m
2020/02/24 03:50 EGXE 240350Z AUTO 16010KT 9999 -RA SCT024/// SCT033/// BKN050/// 04/01 Q1014